Time;durP1;ratioP1;P1;durP2;ratioP2;P2;SDS_P1;SDS_P2;PMS_P1;PMS_P2;Temp;Humidity;BMP_temperature;BMP_pressure;BME280_temperature;BME280_humidity;BME280_pressure;Samples;Min_cycle;Max_cycle;Signal;HPM_P1;HPM_P2
2022/03/27 00:03:43;;;;;;;15.77;8.27;;;;;;;4.99;66.54;100493.13;8241392;28;20046;-69
2022/03/27 00:07:45;;;;;;;13.77;8.53;;;;;;;4.97;67.05;100483.63;8246456;28;20792;-69
2022/03/27 00:11:46;;;;;;;16.60;9.33;;;;;;;4.94;67.21;100486.97;8245602;28;20137;-70
2022/03/27 00:15:47;;;;;;;15.60;9.10;;;;;;;4.80;67.77;100489.03;8238923;28;20167;-69
2022/03/27 00:19:49;;;;;;;14.67;8.27;;;;;;;4.78;68.29;100487.22;8233693;28;20688;-69
2022/03/27 00:23:52;;;;;;;16.57;8.40;;;;;;;4.70;68.42;100486.97;8245086;28;20046;-69
2022/03/27 00:27:54;;;;;;;14.90;7.80;;;;;;;4.64;68.81;100483.28;8248393;28;20061;-70
2022/03/27 00:31:55;;;;;;;12.67;7.63;;;;;;;4.66;68.95;100484.19;8235954;28;20456;-70
2022/03/27 00:35:58;;;;;;;14.37;7.67;;;;;;;4.60;69.43;100476.28;8590245;22;20154;-70
2022/03/27 00:40:00;;;;;;;14.00;7.10;;;;;;;4.50;69.78;100483.66;8228698;28;20051;-70
2022/03/27 00:44:01;;;;;;;11.10;7.30;;;;;;;4.50;69.79;100485.34;8234310;28;20054;-69
2022/03/27 00:48:03;;;;;;;12.70;6.77;;;;;;;4.44;69.81;100480.84;8223595;28;20169;-70
2022/03/27 00:52:05;;;;;;;11.25;6.93;;;;;;;4.40;70.19;100480.66;8231204;28;20046;-69
2022/03/27 00:56:07;;;;;;;11.03;6.03;;;;;;;4.34;70.31;100483.91;8227157;28;20065;-69
2022/03/27 01:00:17;;;;;;;11.13;7.17;;;;;;;4.29;70.61;100480.25;8226993;28;20305;-70
2022/03/27 01:04:19;;;;;;;10.50;6.70;;;;;;;4.22;70.89;100479.16;8231230;28;20150;-70
2022/03/27 01:12:45;;;;;;;10.03;7.30;;;;;;;4.12;70.80;100477.03;8230726;28;20058;-70
2022/03/27 01:16:57;;;;;;;13.40;7.53;;;;;;;4.07;71.12;100472.53;8227607;28;20058;-69
2022/03/27 01:20:59;;;;;;;12.57;6.95;;;;;;;3.99;71.44;100464.53;8237254;28;20061;-70
2022/03/27 01:25:00;;;;;;;13.87;6.97;;;;;;;3.90;72.36;100464.16;8241154;28;20047;-70
2022/03/27 01:29:03;;;;;;;12.57;7.30;;;;;;;3.91;72.75;100466.78;8226521;28;20452;-70
2022/03/27 01:33:09;;;;;;;14.07;7.03;;;;;;;3.93;72.52;100448.88;8231471;28;20089;-70
2022/03/27 01:37:13;;;;;;;13.10;7.27;;;;;;;3.91;72.71;100450.50;8233384;28;20060;-70
2022/03/27 01:41:15;;;;;;;14.03;7.43;;;;;;;3.88;72.82;100438.41;8237689;28;20133;-70
2022/03/27 01:45:16;;;;;;;11.97;7.37;;;;;;;3.92;72.59;100450.56;8226915;28;20042;-70
2022/03/27 01:49:19;;;;;;;17.03;8.00;;;;;;;3.91;72.64;100446.25;8233376;28;20057;-71
2022/03/27 01:53:20;;;;;;;;;;;;;;;3.85;72.97;100451.16;8233963;28;20679;-70
2022/03/27 01:57:22;;;;;;;8.30;5.13;;;;;;;3.76;73.13;100442.19;8234853;28;20423;-70
2022/03/27 02:01:24;;;;;;;15.03;6.50;;;;;;;3.69;73.51;100442.78;8233910;28;20054;-70
2022/03/27 02:05:26;;;;;;;9.90;5.50;;;;;;;3.68;74.05;100441.91;8224251;28;20043;-70
2022/03/27 02:09:28;;;;;;;16.20;6.07;;;;;;;3.58;73.82;100435.50;8242212;28;20060;-70
2022/03/27 02:13:29;;;;;;;8.57;5.73;;;;;;;3.53;74.26;100441.28;8237584;28;20140;-70
2022/03/27 02:17:31;;;;;;;9.93;6.18;;;;;;;3.49;73.88;100440.28;8232743;28;20161;-70
2022/03/27 02:21:41;;;;;;;12.13;6.13;;;;;;;3.48;73.83;100438.53;8258574;28;20494;-70
2022/03/27 02:25:42;;;;;;;12.03;5.20;;;;;;;3.42;73.99;100442.56;8234563;28;20054;-70
2022/03/27 02:29:44;;;;;;;8.67;5.50;;;;;;;3.31;74.82;100447.22;8237949;28;20102;-70
2022/03/27 02:33:45;;;;;;;14.77;6.50;;;;;;;3.29;74.63;100438.59;8238555;28;20164;-70
2022/03/27 02:37:47;;;;;;;12.53;6.60;;;;;;;3.22;74.37;100442.56;8237095;28;20138;-70
2022/03/27 02:41:48;;;;;;;10.23;6.20;;;;;;;3.17;73.80;100448.34;8230076;28;20054;-70
2022/03/27 02:45:50;;;;;;;11.47;6.30;;;;;;;3.15;73.77;100450.84;8226829;28;20066;-70
2022/03/27 02:49:52;;;;;;;16.00;6.90;;;;;;;3.12;73.23;100449.84;8237827;28;20356;-70
2022/03/27 02:53:53;;;;;;;12.50;5.90;;;;;;;3.08;72.89;100447.97;8236551;28;20091;-70
2022/03/27 02:57:55;;;;;;;10.50;6.77;;;;;;;3.04;72.79;100445.25;8234193;28;20703;-70
2022/03/27 03:01:57;;;;;;;12.33;5.93;;;;;;;3.01;72.60;100449.38;8235687;28;20158;-69
2022/03/27 03:06:01;;;;;;;11.63;6.00;;;;;;;2.94;73.07;100443.13;8239205;28;20055;-70
2022/03/27 03:10:03;;;;;;;9.83;5.70;;;;;;;2.89;72.82;100443.75;8236104;28;20369;-69
2022/03/27 03:14:05;;;;;;;9.93;5.72;;;;;;;2.83;73.08;100441.78;8235036;28;20050;-70
2022/03/27 03:18:27;;;;;;;15.50;6.13;;;;;;;2.77;72.99;100445.75;8227941;28;20113;-70
2022/03/27 03:22:29;;;;;;;10.10;5.43;;;;;;;2.66;73.47;100443.59;8242479;28;20487;-70
2022/03/27 03:26:31;;;;;;;11.07;5.88;;;;;;;2.60;73.45;100448.47;8205380;28;20766;-70
2022/03/27 03:30:32;;;;;;;10.70;5.23;;;;;;;2.55;74.10;100449.97;8210904;28;20067;-70
2022/03/27 03:34:33;;;;;;;14.30;5.83;;;;;;;2.46;74.83;100441.84;8222915;28;20054;-70
2022/03/27 03:38:35;;;;;;;10.57;5.30;;;;;;;2.41;75.20;100444.22;8235795;28;20050;-70
2022/03/27 03:42:36;;;;;;;12.87;5.87;;;;;;;2.37;75.18;100439.75;8232225;28;20874;-70
2022/03/27 03:46:38;;;;;;;8.60;5.53;;;;;;;2.41;75.40;100433.97;8232668;28;20535;-70
2022/03/27 03:50:39;;;;;;;8.90;5.50;;;;;;;2.37;75.38;100438.88;8227283;28;20137;-70
2022/03/27 03:54:41;;;;;;;10.10;5.07;;;;;;;2.33;75.36;100436.97;8231504;28;20187;-70
2022/03/27 03:58:43;;;;;;;11.73;5.53;;;;;;;2.27;75.56;100436.69;8223410;28;20507;-70
2022/03/27 04:02:44;;;;;;;10.67;5.53;;;;;;;2.26;75.75;100438.38;8229596;28;20067;-70
2022/03/27 04:06:46;;;;;;;11.63;5.17;;;;;;;2.24;75.38;100434.88;8229068;28;20639;-70
2022/03/27 04:10:48;;;;;;;9.90;5.07;;;;;;;2.22;75.37;100436.50;8226327;28;20065;-70
2022/03/27 04:14:49;;;;;;;8.52;5.55;;;;;;;2.18;75.85;100431.16;8238949;28;20055;-70
2022/03/27 04:18:51;;;;;;;8.90;5.27;;;;;;;2.12;76.04;100429.19;8229817;28;20909;-70
2022/03/27 04:22:52;;;;;;;10.43;6.03;;;;;;;2.07;75.89;100431.53;8234244;28;20058;-70
2022/03/27 04:26:54;;;;;;;12.03;5.63;;;;;;;2.03;76.42;100427.09;8235998;28;20166;-70
2022/03/27 04:30:55;;;;;;;7.83;4.93;;;;;;;2.02;75.85;100427.03;8230425;28;20645;-70
2022/03/27 04:34:57;;;;;;;9.57;5.60;;;;;;;2.02;76.30;100432.16;8232311;28;20495;-70
2022/03/27 04:38:59;;;;;;;8.17;5.13;;;;;;;1.95;76.39;100432.66;8230059;28;20189;-70
2022/03/27 04:43:00;;;;;;;8.80;5.20;;;;;;;1.91;76.15;100441.88;8222860;28;20105;-70
2022/03/27 04:47:02;;;;;;;8.07;5.10;;;;;;;1.87;75.79;100445.09;8227929;28;20149;-70
2022/03/27 04:51:04;;;;;;;11.00;4.57;;;;;;;1.81;76.70;100442.28;8233091;28;20054;-70
2022/03/27 04:55:07;;;;;;;9.53;5.53;;;;;;;1.79;76.74;100447.28;8232198;28;20296;-70
2022/03/27 04:59:08;;;;;;;12.10;5.23;;;;;;;1.75;76.89;100455.63;8235021;28;20046;-70
2022/03/27 05:03:11;;;;;;;7.57;5.07;;;;;;;1.77;76.53;100446.34;8229040;28;20077;-70
2022/03/27 05:07:13;;;;;;;10.73;5.07;;;;;;;1.75;76.55;100447.09;8232038;28;20112;-70
2022/03/27 05:11:14;;;;;;;10.47;6.00;;;;;;;1.69;76.71;100447.69;8226398;28;20559;-70
2022/03/27 05:15:16;;;;;;;9.27;5.83;;;;;;;1.67;77.07;100450.97;8224970;28;20057;-70
2022/03/27 05:19:17;;;;;;;8.20;5.20;;;;;;;1.63;77.44;100447.38;8234930;28;20153;-70
2022/03/27 05:23:19;;;;;;;8.07;5.33;;;;;;;1.65;77.90;100453.47;8229603;28;20046;-71
2022/03/27 05:27:20;;;;;;;7.57;4.90;;;;;;;1.63;78.02;100456.75;8229313;28;20442;-71
2022/03/27 05:31:22;;;;;;;10.97;4.90;;;;;;;1.63;78.05;100452.50;8225771;28;20051;-70
2022/03/27 05:35:24;;;;;;;15.00;6.00;;;;;;;1.59;78.53;100454.81;8225370;28;20058;-71
2022/03/27 05:39:25;;;;;;;10.75;5.38;;;;;;;1.64;78.48;100461.06;8224088;28;20058;-71
2022/03/27 05:43:27;;;;;;;13.43;5.73;;;;;;;1.66;78.65;100462.03;8234340;28;20481;-71
2022/03/27 05:47:29;;;;;;;10.20;5.30;;;;;;;1.74;78.46;100464.13;8218612;28;20065;-70
2022/03/27 05:51:30;;;;;;;7.67;5.33;;;;;;;1.77;78.15;100471.06;8234616;28;20062;-70
2022/03/27 05:55:31;;;;;;;7.60;4.53;;;;;;;1.89;78.26;100473.34;8228638;28;20047;-70
2022/03/27 05:59:33;;;;;;;7.23;5.07;;;;;;;2.01;78.53;100479.06;8232720;28;20094;-70
2022/03/27 06:03:34;;;;;;;8.53;4.43;;;;;;;2.11;78.08;100482.09;8220693;28;20094;-70
2022/03/27 06:07:47;;;;;;;11.03;5.27;;;;;;;2.19;77.41;100477.34;8232812;28;20504;-70
2022/03/27 06:11:49;;;;;;;9.18;5.47;;;;;;;2.25;76.96;100485.31;8228242;28;20047;-70
2022/03/27 06:15:51;;;;;;;12.27;6.33;;;;;;;2.43;76.72;100488.72;8232832;28;20149;-71
2022/03/27 06:19:52;;;;;;;11.52;5.43;;;;;;;2.63;76.89;100488.75;8235526;28;20055;-71
2022/03/27 06:23:54;;;;;;;8.03;5.10;;;;;;;2.85;77.23;100493.13;8231972;28;20113;-71
2022/03/27 06:27:57;;;;;;;13.10;6.07;;;;;;;3.43;76.26;100491.38;8216033;28;20047;-71
2022/03/27 06:31:58;;;;;;;;;;;;;;;4.11;74.47;100500.97;8213619;28;20070;-71
2022/03/27 06:36:01;;;;;;;13.73;5.50;;;;;;;4.74;71.88;100493.97;8220478;28;19938;-71
2022/03/27 06:40:04;;;;;;;9.13;4.47;;;;;;;5.47;69.37;100498.25;8222460;28;20503;-71
2022/03/27 06:44:06;;;;;;;6.40;4.50;;;;;;;6.16;67.39;100485.94;8213439;28;20058;-70
2022/03/27 06:48:07;;;;;;;14.77;5.07;;;;;;;6.74;65.75;100495.38;8208524;28;20672;-70
2022/03/27 06:52:09;;;;;;;7.95;4.95;;;;;;;7.27;63.81;100496.00;8212271;28;20057;-71
2022/03/27 06:56:14;;;;;;;8.63;4.68;;;;;;;7.67;62.81;100502.19;8212471;28;20117;-71
2022/03/27 07:04:37;;;;;;;11.15;5.88;;;;;;;8.15;61.75;100510.25;8230992;28;20062;-71
2022/03/27 07:08:38;;;;;;;9.73;5.57;;;;;;;8.32;61.66;100515.81;8216486;28;20562;-71
2022/03/27 07:12:40;;;;;;;10.60;5.75;;;;;;;8.61;61.66;100506.13;8210047;28;20495;-71
2022/03/27 07:16:41;;;;;;;11.10;5.30;;;;;;;8.92;61.33;100510.22;8204926;28;20062;-71
2022/03/27 07:20:45;;;;;;;8.77;5.07;;;;;;;9.33;60.85;100509.31;8208008;28;20113;-70
2022/03/27 07:24:47;;;;;;;8.07;5.57;;;;;;;9.82;59.66;100502.41;8210894;28;20082;-71
2022/03/27 07:28:49;;;;;;;9.50;5.65;;;;;;;10.35;58.85;100497.19;8211615;28;20069;-71
2022/03/27 07:32:53;;;;;;;13.18;7.20;;;;;;;10.99;57.63;100497.16;8209723;28;20065;-70
2022/03/27 07:36:54;;;;;;;13.93;7.15;;;;;;;11.64;56.56;100504.75;8211557;28;20057;-71
2022/03/27 07:40:56;;;;;;;8.93;6.20;;;;;;;12.14;55.73;100500.00;8207546;28;20050;-71
2022/03/27 07:44:58;;;;;;;12.37;6.67;;;;;;;12.71;54.42;100501.19;8208160;28;20141;-70
2022/03/27 07:49:06;;;;;;;10.63;7.22;;;;;;;13.10;52.77;100499.59;8206897;28;20158;-71
2022/03/27 07:53:08;;;;;;;;;;;;;;;13.41;51.75;100493.63;8208199;28;20055;-71
2022/03/27 07:57:09;;;;;;;10.70;6.45;;;;;;;13.65;50.82;100489.34;8207757;28;19932;-70
2022/03/27 08:01:14;;;;;;;9.80;6.70;;;;;;;14.10;50.40;100497.16;8204710;28;20065;-71
2022/03/27 08:05:17;;;;;;;14.57;6.35;;;;;;;14.49;48.81;100485.78;8207661;28;20051;-70
2022/03/27 08:09:18;;;;;;;7.82;6.35;;;;;;;14.86;48.43;100485.66;8201797;28;20138;-70
2022/03/27 08:13:20;;;;;;;11.53;6.80;;;;;;;15.16;46.75;100475.94;8204934;28;20058;-71
2022/03/27 08:17:21;;;;;;;9.40;7.07;;;;;;;15.55;45.50;100480.91;8200417;28;20161;-70
2022/03/27 08:21:23;;;;;;;10.38;6.93;;;;;;;15.86;44.58;100478.97;8203973;28;20062;-70
2022/03/27 08:29:45;;;;;;;11.52;7.47;;;;;;;16.31;43.16;100477.63;8203230;28;20053;-70
2022/03/27 08:33:48;;;;;;;9.93;7.03;;;;;;;16.51;41.88;100484.41;8200932;28;20051;-71
2022/03/27 08:37:49;;;;;;;14.73;7.85;;;;;;;16.72;41.18;100480.75;8203225;28;20699;-70
2022/03/27 08:41:54;;;;;;;10.43;7.40;;;;;;;16.97;41.30;100487.41;8202836;28;20065;-71
2022/03/27 08:45:57;;;;;;;12.40;6.60;;;;;;;17.13;40.08;100488.94;8214503;28;20071;-70
2022/03/27 08:50:11;;;;;;;8.23;6.95;;;;;;;17.27;39.99;100478.25;8204883;28;20142;-71
2022/03/27 08:54:23;;;;;;;11.82;6.38;;;;;;;17.48;40.00;100483.19;8204138;28;20092;-70
2022/03/27 08:58:36;;;;;;;12.02;8.05;;;;;;;17.78;39.49;100478.38;8202902;28;20051;-70
2022/03/27 09:02:39;;;;;;;13.82;6.47;;;;;;;18.04;38.36;100480.56;8197747;28;20724;-70
2022/03/27 09:06:40;;;;;;;11.98;7.95;;;;;;;18.05;37.51;100484.94;8202420;28;20050;-70
2022/03/27 09:10:42;;;;;;;12.10;6.90;;;;;;;18.07;37.45;100485.75;8202230;28;20054;-70
2022/03/27 09:14:44;;;;;;;11.05;6.95;;;;;;;18.23;37.54;100479.34;8203948;28;20054;-71
2022/03/27 09:18:52;;;;;;;10.20;6.68;;;;;;;18.32;36.66;100486.22;8199906;28;20050;-70
2022/03/27 09:22:53;;;;;;;10.50;7.03;;;;;;;18.30;36.49;100486.22;8201566;28;20385;-70
2022/03/27 09:27:00;;;;;;;12.02;6.75;;;;;;;18.39;36.59;100491.31;8202796;28;20050;-70
2022/03/27 09:31:05;;;;;;;9.75;6.85;;;;;;;18.48;35.99;100479.72;8197688;28;20145;-70
2022/03/27 09:35:08;;;;;;;11.27;6.57;;;;;;;18.62;37.08;100475.06;8192441;28;20162;-70
2022/03/27 09:39:10;;;;;;;10.27;6.80;;;;;;;18.79;35.29;100469.50;8193095;28;20054;-70
2022/03/27 09:43:12;;;;;;;10.48;5.93;;;;;;;18.97;35.46;100473.50;8208153;28;20513;-70
2022/03/27 09:47:13;;;;;;;8.27;6.13;;;;;;;19.15;35.44;100475.75;8203834;28;20076;-70
2022/03/27 09:51:15;;;;;;;12.10;6.30;;;;;;;19.29;34.37;100472.81;8220792;28;20093;-70
2022/03/27 09:55:16;;;;;;;8.07;6.13;;;;;;;19.63;34.18;100462.38;8229291;28;20061;-71
2022/03/27 09:59:45;;;;;;;9.02;6.05;;;;;;;19.75;33.81;100466.47;8217953;28;20342;-70
2022/03/27 10:03:59;;;;;;;10.95;6.60;;;;;;;19.87;33.86;100458.28;8214516;28;20086;-70
2022/03/27 10:08:01;;;;;;;7.82;5.65;;;;;;;19.77;34.13;100455.00;8220150;28;20062;-71
2022/03/27 10:12:04;;;;;;;8.60;5.88;;;;;;;19.89;33.19;100436.22;8226349;28;20411;-70
2022/03/27 10:16:06;;;;;;;10.95;5.75;;;;;;;19.92;33.01;100440.56;8217036;28;20555;-70
2022/03/27 10:20:10;;;;;;;9.40;6.07;;;;;;;20.14;33.41;100425.06;8230913;28;20058;-70
2022/03/27 10:24:14;;;;;;;7.63;5.78;;;;;;;20.52;33.21;100440.72;8223747;28;20435;-70
2022/03/27 10:28:20;;;;;;;9.05;5.70;;;;;;;20.75;31.80;100421.56;8224374;28;20526;-70
2022/03/27 10:32:22;;;;;;;11.40;5.32;;;;;;;20.89;31.03;100422.94;8224976;28;20710;-70
2022/03/27 10:36:46;;;;;;;10.02;5.50;;;;;;;21.02;31.19;100411.97;8222050;28;20085;-71
2022/03/27 10:41:01;;;;;;;7.95;5.93;;;;;;;21.14;29.91;100415.97;8222030;28;20063;-71
2022/03/27 10:45:09;;;;;;;8.20;5.82;;;;;;;21.22;30.35;100410.47;8227169;28;20440;-70
2022/03/27 10:49:16;;;;;;;6.72;5.40;;;;;;;21.30;29.27;100411.97;8224588;28;20060;-70
2022/03/27 10:53:25;;;;;;;9.30;5.35;;;;;;;21.24;30.65;100398.09;8223979;28;20054;-70
2022/03/27 10:57:32;;;;;;;7.72;4.95;;;;;;;21.12;29.49;100399.31;8221227;28;20053;-68
2022/03/27 11:01:40;;;;;;;9.00;5.63;;;;;;;21.06;30.18;100391.59;8222729;28;20577;-69
2022/03/27 11:05:45;;;;;;;8.75;5.28;;;;;;;21.18;29.63;100383.28;8215631;28;20467;-69
2022/03/27 11:09:46;;;;;;;8.32;5.05;;;;;;;21.17;29.73;100378.03;8228339;28;20162;-70
2022/03/27 11:13:48;;;;;;;9.07;4.90;;;;;;;21.34;30.01;100379.25;8219977;28;20050;-70
2022/03/27 11:17:50;;;;;;;11.77;5.43;;;;;;;21.43;29.75;100393.97;8222614;28;20260;-70
2022/03/27 11:21:51;;;;;;;;;;;;;;;21.26;30.45;100369.88;8225712;28;20093;-70
2022/03/27 11:25:53;;;;;;;8.63;4.43;;;;;;;21.35;29.14;100369.53;8226533;28;19936;-69
2022/03/27 11:30:10;;;;;;;10.60;5.03;;;;;;;21.35;30.32;100366.91;8225250;28;20054;-70
2022/03/27 11:34:12;;;;;;;9.45;4.45;;;;;;;21.44;29.35;100352.53;8225450;28;20050;-70
2022/03/27 11:38:25;;;;;;;8.55;4.18;;;;;;;21.80;28.59;100358.34;8230162;28;20058;-70
2022/03/27 11:42:34;;;;;;;6.35;3.13;;;;;;;22.05;27.95;100366.28;8228956;28;20086;-70
2022/03/27 11:46:37;;;;;;;12.55;3.50;;;;;;;22.13;25.95;100349.25;8223683;28;20074;-69
2022/03/27 11:50:38;;;;;;;7.05;3.92;;;;;;;22.24;25.54;100368.22;8225657;28;20059;-70
2022/03/27 11:54:40;;;;;;;5.15;2.95;;;;;;;22.25;26.30;100359.34;8218233;28;20065;-70
2022/03/27 11:58:43;;;;;;;;;;;;;;;22.28;26.67;100353.13;8188575;28;20069;-69
2022/03/27 12:02:45;;;;;;;;;;;;;;;22.21;25.93;100344.53;8182122;28;19936;-69
2022/03/27 12:06:53;;;;;;;4.25;3.75;;;;;;;22.46;26.29;100349.78;8187094;28;20083;-70
2022/03/27 12:10:57;;;;;;;7.38;3.20;;;;;;;22.35;25.61;100348.44;8185534;28;20050;-69
2022/03/27 12:15:02;;;;;;;3.45;2.90;;;;;;;22.52;25.04;100331.00;8186277;28;20055;-69
2022/03/27 12:19:13;;;;;;;7.15;3.92;;;;;;;22.80;25.01;100332.56;8177958;28;20051;-69
2022/03/27 12:23:23;;;;;;;5.80;3.33;;;;;;;22.85;24.76;100328.88;8195916;28;20054;-69
2022/03/27 12:31:46;;;;;;;6.10;3.55;;;;;;;22.82;25.00;100323.69;8200763;28;20070;-70
2022/03/27 12:36:03;;;;;;;7.03;3.47;;;;;;;22.90;25.60;100324.25;8202624;28;20149;-70
2022/03/27 12:40:06;;;;;;;3.97;2.78;;;;;;;22.89;24.19;100321.66;8202720;28;20452;-70
2022/03/27 12:44:08;;;;;;;3.47;2.63;;;;;;;22.99;24.49;100325.66;8205198;28;20050;-70
2022/03/27 12:48:17;;;;;;;;;;;;;;;23.12;24.79;100316.28;8200715;28;20047;-70
2022/03/27 12:52:18;;;;;;;7.57;2.78;;;;;;;23.06;23.85;100310.38;8208982;28;19929;-70
2022/03/27 12:56:20;;;;;;;4.15;2.85;;;;;;;23.10;23.89;100310.19;8207316;28;20053;-70
2022/03/27 13:00:32;;;;;;;6.68;3.28;;;;;;;23.01;24.70;100305.28;8209512;28;20141;-70
2022/03/27 13:04:34;;;;;;;7.80;2.50;;;;;;;23.07;25.25;100299.72;8217484;28;20083;-70
2022/03/27 13:08:39;;;;;;;3.47;2.30;;;;;;;23.23;24.27;100284.03;8219529;28;20053;-70
2022/03/27 13:12:40;;;;;;;5.57;2.25;;;;;;;23.35;24.29;100280.03;8223190;28;20086;-70
2022/03/27 13:16:46;;;;;;;4.45;2.50;;;;;;;23.48;24.16;100276.75;8225078;28;20741;-70
2022/03/27 13:20:48;;;;;;;4.40;2.50;;;;;;;23.60;22.88;100285.16;8223404;28;20059;-70
2022/03/27 13:24:50;;;;;;;;;;;;;;;23.66;22.60;100274.25;8225956;28;20051;-70
2022/03/27 13:28:52;;;;;;;3.97;2.20;;;;;;;23.58;21.03;100264.00;8225719;28;19933;-70
2022/03/27 13:32:58;;;;;;;3.38;1.90;;;;;;;23.55;21.27;100263.25;8220052;28;20058;-70
2022/03/27 13:37:00;;;;;;;4.80;1.98;;;;;;;23.70;21.97;100257.31;8219833;28;20505;-70
2022/03/27 13:45:22;;;;;;;2.75;1.70;;;;;;;23.03;21.40;100239.84;8219009;28;20069;-70
2022/03/27 13:49:25;;;;;;;3.92;1.75;;;;;;;23.17;22.08;100247.22;8219503;28;20057;-70
2022/03/27 13:53:26;;;;;;;3.63;1.63;;;;;;;23.31;21.27;100238.66;8226079;28;20050;-70
2022/03/27 13:57:28;;;;;;;5.43;1.30;;;;;;;23.39;21.44;100232.09;8223659;28;20141;-69
2022/03/27 14:01:32;;;;;;;4.90;1.35;;;;;;;23.65;20.98;100243.38;8221392;28;20100;-69
2022/03/27 14:05:34;;;;;;;5.47;1.35;;;;;;;23.68;20.43;100229.97;8223504;28;20058;-69
2022/03/27 14:09:36;;;;;;;3.30;1.10;;;;;;;23.77;20.91;100222.47;8224763;28;20051;-69
2022/03/27 14:13:38;;;;;;;2.40;1.60;;;;;;;23.77;20.72;100224.25;8233200;28;20113;-69
2022/03/27 14:17:39;;;;;;;2.58;1.35;;;;;;;23.87;20.76;100217.59;8219181;28;20070;-70
2022/03/27 14:21:41;;;;;;;5.70;1.23;;;;;;;23.97;20.80;100213.59;8224425;28;20452;-70
2022/03/27 14:25:43;;;;;;;;;;;;;;;23.93;20.44;100209.38;8224666;28;20768;-70
2022/03/27 14:29:45;;;;;;;3.67;1.90;;;;;;;23.99;20.83;100208.22;8219684;28;19929;-70
2022/03/27 14:33:47;;;;;;;2.97;1.55;;;;;;;23.83;20.33;100209.84;8220039;28;20142;-70
2022/03/27 14:37:49;;;;;;;1.98;1.40;;;;;;;23.84;20.56;100193.88;8227200;28;20061;-69
2022/03/27 14:41:50;;;;;;;5.93;1.50;;;;;;;23.90;20.59;100201.56;8225297;28;20066;-69
2022/03/27 14:45:55;;;;;;;1.50;1.30;;;;;;;23.96;20.18;100195.09;8222157;28;20063;-70
2022/03/27 14:49:56;;;;;;;2.35;1.40;;;;;;;23.83;19.91;100193.94;8231645;28;20058;-69
2022/03/27 14:58:18;;;;;;;2.90;1.45;;;;;;;23.85;20.06;100190.28;8224887;28;20406;-69
2022/03/27 15:02:20;;;;;;;3.25;1.30;;;;;;;23.84;20.12;100175.28;8224718;28;20070;-69
2022/03/27 15:06:22;;;;;;;4.13;1.70;;;;;;;23.78;19.30;100173.81;8227175;28;20050;-69
2022/03/27 15:10:23;;;;;;;3.53;1.38;;;;;;;23.80;19.70;100161.31;8222984;28;20050;-70
2022/03/27 15:14:25;;;;;;;1.50;1.23;;;;;;;23.81;20.00;100164.84;8224184;28;20064;-69
2022/03/27 15:18:26;;;;;;;2.00;1.27;;;;;;;23.80;20.01;100163.13;8224287;28;20057;-69
2022/03/27 15:22:28;;;;;;;4.63;1.88;;;;;;;23.93;19.12;100158.97;8219358;28;20392;-69
2022/03/27 15:26:30;;;;;;;;;;;;;;;23.92;18.90;100164.34;8226756;28;20152;-69
2022/03/27 15:30:31;;;;;;;2.03;1.23;;;;;;;24.06;19.37;100156.59;8226101;28;20014;-70
2022/03/27 15:34:33;;;;;;;2.15;1.17;;;;;;;24.10;18.74;100151.06;8214081;28;20074;-69
2022/03/27 15:38:34;;;;;;;2.10;1.30;;;;;;;24.23;18.28;100148.66;8221013;28;20058;-70
2022/03/27 15:42:36;;;;;;;1.58;1.02;;;;;;;24.58;18.43;100151.41;8216069;28;20145;-69
2022/03/27 15:46:38;;;;;;;2.30;1.48;;;;;;;24.86;17.53;100157.06;8218737;28;20050;-69
2022/03/27 15:50:39;;;;;;;2.30;1.30;;;;;;;25.08;17.25;100148.88;8219645;28;20129;-69
2022/03/27 15:54:41;;;;;;;2.90;1.40;;;;;;;25.56;16.85;100141.91;8214639;28;20755;-69
2022/03/27 15:58:42;;;;;;;2.22;1.20;;;;;;;25.73;15.72;100149.88;8221137;28;20051;-69
2022/03/27 16:02:44;;;;;;;3.03;1.40;;;;;;;25.82;16.68;100146.69;8217207;28;20097;-69
2022/03/27 16:06:45;;;;;;;3.05;1.40;;;;;;;25.97;16.77;100144.97;8222501;28;20051;-69
2022/03/27 16:10:51;;;;;;;1.73;1.30;;;;;;;26.27;17.00;100145.06;8222224;28;20047;-69
2022/03/27 16:14:52;;;;;;;2.95;1.38;;;;;;;27.34;15.57;100146.75;8224272;28;20459;-69
2022/03/27 16:18:54;;;;;;;2.97;1.50;;;;;;;27.42;15.26;100147.13;8222593;28;20058;-69
2022/03/27 16:22:56;;;;;;;3.38;1.13;;;;;;;29.46;14.93;100147.03;8226135;28;20141;-70
2022/03/27 16:26:58;;;;;;;2.63;1.10;;;;;;;29.46;14.73;100144.34;8218638;28;20055;-69
2022/03/27 16:30:59;;;;;;;;;;;;;;;30.32;12.83;100141.66;8221951;28;20456;-70
2022/03/27 16:35:02;;;;;;;2.55;1.25;;;;;;;32.79;11.52;100144.47;8225863;28;19925;-70
2022/03/27 16:39:04;;;;;;;3.30;1.27;;;;;;;34.66;9.86;100135.06;8223113;28;20078;-70
2022/03/27 16:43:07;;;;;;;2.05;1.10;;;;;;;36.26;9.52;100136.63;8224314;28;20054;-70
2022/03/27 16:47:08;;;;;;;1.67;1.15;;;;;;;36.99;8.07;100139.22;8212659;28;20069;-71
2022/03/27 16:51:10;;;;;;;3.20;0.90;;;;;;;36.19;7.63;100134.72;8218500;28;20109;-71
2022/03/27 16:55:12;;;;;;;1.00;0.90;;;;;;;33.12;9.57;100135.38;8218488;28;20129;-71
2022/03/27 16:59:16;;;;;;;2.88;1.30;;;;;;;29.13;11.99;100135.97;8222585;28;20046;-70
2022/03/27 17:03:19;;;;;;;2.42;1.35;;;;;;;26.29;14.68;100118.34;8211889;28;20094;-70
2022/03/27 17:07:23;;;;;;;2.42;1.40;;;;;;;24.41;17.38;100129.22;8223621;28;20050;-69
2022/03/27 17:11:25;;;;;;;5.72;1.35;;;;;;;23.06;18.81;100128.44;8220011;28;20082;-70
2022/03/27 17:15:26;;;;;;;4.68;1.65;;;;;;;22.05;19.19;100129.09;8210808;28;20059;-69
2022/03/27 17:19:30;;;;;;;4.57;1.50;;;;;;;21.33;20.86;100130.97;8214130;28;20047;-69
2022/03/27 17:23:32;;;;;;;3.72;1.92;;;;;;;20.77;21.40;100133.78;8213207;28;20085;-69
2022/03/27 17:27:34;;;;;;;4.22;1.05;;;;;;;20.27;23.00;100132.78;8203705;28;20454;-69
2022/03/27 17:31:36;;;;;;;3.55;1.60;;;;;;;19.66;23.60;100125.03;8203509;28;20070;-70
2022/03/27 17:35:37;;;;;;;3.63;1.27;;;;;;;19.12;25.17;100130.06;8208219;28;20059;-69
2022/03/27 17:39:39;;;;;;;7.68;1.27;;;;;;;18.64;25.90;100139.19;8206001;28;20057;-69
2022/03/27 17:43:41;;;;;;;4.47;1.90;;;;;;;18.20;25.56;100136.78;8207835;28;20134;-69
2022/03/27 17:47:42;;;;;;;6.97;1.77;;;;;;;17.93;25.81;100140.88;8206603;28;20058;-69
2022/03/27 17:51:44;;;;;;;6.63;1.80;;;;;;;17.64;28.04;100145.00;8208021;28;20046;-69
2022/03/27 17:55:45;;;;;;;13.13;1.27;;;;;;;17.35;28.48;100153.47;8208967;28;20124;-69
2022/03/27 17:59:47;;;;;;;6.40;1.23;;;;;;;17.06;28.65;100156.66;8213906;28;20414;-69
2022/03/27 18:03:48;;;;;;;5.22;1.00;;;;;;;16.79;29.78;100154.50;8216838;28;20077;-69
2022/03/27 18:07:50;;;;;;;2.50;1.30;;;;;;;16.42;31.69;100157.72;8214442;28;20065;-69
2022/03/27 18:11:51;;;;;;;7.77;1.03;;;;;;;16.14;31.10;100166.88;8217744;28;20050;-69
2022/03/27 18:15:52;;;;;;;4.43;0.90;;;;;;;15.86;32.25;100175.13;8217685;28;20073;-69
2022/03/27 18:19:54;;;;;;;3.65;1.33;;;;;;;15.59;33.25;100172.84;8219058;28;20566;-70
2022/03/27 18:23:56;;;;;;;5.80;1.20;;;;;;;15.30;33.77;100176.66;8217321;28;20146;-68
2022/03/27 18:27:57;;;;;;;13.60;1.40;;;;;;;15.03;34.57;100183.03;8224636;28;20051;-70
2022/03/27 18:31:59;;;;;;;5.75;1.00;;;;;;;14.84;36.11;100193.69;8225228;28;20058;-69
2022/03/27 18:36:02;;;;;;;5.93;1.40;;;;;;;14.63;36.96;100198.22;8220136;28;20055;-69
2022/03/27 18:40:04;;;;;;;6.78;1.50;;;;;;;14.44;38.00;100209.69;8228737;28;20093;-70
2022/03/27 18:44:06;;;;;;;8.20;1.63;;;;;;;14.25;40.23;100213.28;8224158;28;20065;-70
2022/03/27 18:48:09;;;;;;;7.57;1.37;;;;;;;14.02;40.95;100202.97;8221639;28;20090;-69
2022/03/27 18:52:10;;;;;;;5.15;1.50;;;;;;;13.86;41.33;100199.56;8222550;28;20288;-69
2022/03/27 18:56:14;;;;;;;4.47;1.43;;;;;;;13.70;42.37;100210.94;8223356;28;20046;-69
2022/03/27 19:00:15;;;;;;;5.53;1.70;;;;;;;13.50;43.71;100218.84;8215627;28;20062;-69
2022/03/27 19:04:17;;;;;;;1.33;1.10;;;;;;;13.27;45.49;100216.25;8222380;28;20058;-69
2022/03/27 19:08:19;;;;;;;3.23;1.20;;;;;;;13.08;45.73;100219.75;8229081;28;20307;-69
2022/03/27 19:12:21;;;;;;;;;;;;;;;12.95;46.55;100218.91;8227984;28;20050;-69
2022/03/27 19:16:22;;;;;;;3.63;1.33;;;;;;;12.77;46.87;100224.13;8221129;28;19997;-69
2022/03/27 19:20:28;;;;;;;3.13;1.40;;;;;;;12.66;46.91;100227.59;8212829;28;20086;-69
2022/03/27 19:24:29;;;;;;;1.77;1.42;;;;;;;12.56;48.39;100235.38;8210418;28;20519;-68